Time;durP1;ratioP1;P1;durP2;ratioP2;P2;SDS_P1;SDS_P2;PMS_P1;PMS_P2;Temp;Humidity;BMP_temperature;BMP_pressure;BME280_temperature;BME280_humidity;BME280_pressure;Samples;Min_cycle;Max_cycle;Signal;HPM_P1;HPM_P2
2021/04/13 00:01:30;;;;;;;19.30;7.35;;;3.90;86.20;;;;;;5013339;28;19925;-58
2021/04/13 00:04:13;;;;;;;14.27;7.38;;;4.00;86.10;;;;;;5017066;28;20095;-59
2021/04/13 00:06:51;;;;;;;14.25;7.45;;;3.90;86.20;;;;;;5012855;28;20497;-58
2021/04/13 00:09:25;;;;;;;13.90;7.45;;;3.80;86.10;;;;;;5017255;28;20037;-59
2021/04/13 00:11:55;;;;;;;20.25;8.48;;;3.60;86.90;;;;;;5012742;28;20033;-60
2021/04/13 00:14:25;;;;;;;19.77;7.75;;;3.40;88.40;;;;;;5016936;28;20487;-59
2021/04/13 00:16:53;;;;;;;18.27;7.75;;;3.20;89.00;;;;;;5012470;28;20106;-62
2021/04/13 00:19:27;;;;;;;17.15;8.38;;;3.40;88.60;;;;;;5017109;28;20021;-59
2021/04/13 00:21:53;;;;;;;;;;;3.40;88.70;;;;;;5011198;28;20458;-61
2021/04/13 00:24:22;;;;;;;19.23;8.20;;;3.30;89.60;;;;;;5016262;28;19996;-60
2021/04/13 00:26:56;;;;;;;18.77;8.18;;;3.10;90.00;;;;;;5012833;28;20445;-61
2021/04/13 00:29:28;;;;;;;17.75;9.50;;;2.80;90.70;;;;;;5017471;28;20056;-62
2021/04/13 00:31:59;;;;;;;14.82;8.73;;;2.70;90.80;;;;;;5012524;28;20426;-60
2021/04/13 00:34:54;;;;;;;15.45;8.60;;;2.80;91.00;;;;;;5017649;28;20026;-57
2021/04/13 00:37:30;;;;;;;;;;;2.70;91.10;;;;;;5012902;28;20025;-59
2021/04/13 00:40:22;;;;;;;15.82;8.40;;;2.70;91.30;;;;;;5008404;28;19950;-58
2021/04/13 00:42:49;;;;;;;15.18;7.65;;;2.70;91.20;;;;;;5015372;28;20446;-60
2021/04/13 00:45:20;;;;;;;16.27;7.90;;;2.80;90.90;;;;;;5014777;28;20057;-57
2021/04/13 00:47:47;;;;;;;11.45;7.32;;;2.90;91.00;;;;;;5014146;28;20034;-57
2021/04/13 00:50:37;;;;;;;13.68;7.65;;;2.90;90.70;;;;;;5015871;28;20048;-58
2021/04/13 00:53:07;;;;;;;13.75;7.57;;;3.00;90.70;;;;;;5016594;28;20029;-59
2021/04/13 00:55:45;;;;;;;11.20;7.18;;;3.00;90.30;;;;;;5016873;28;20018;-61
2021/04/13 00:58:19;;;;;;;13.32;7.85;;;3.10;90.10;;;;;;5016472;28;20036;-60
2021/04/13 01:00:52;;;;;;;9.45;6.93;;;3.10;90.10;;;;;;5015892;28;20018;-58
2021/04/13 01:03:19;;;;;;;10.80;7.13;;;3.00;90.40;;;;;;5017106;28;20528;-60
2021/04/13 01:05:56;;;;;;;8.07;7.20;;;3.00;90.60;;;;;;5013989;28;20119;-58
2021/04/13 01:08:22;;;;;;;11.30;7.40;;;3.00;90.50;;;;;;5015847;28;20087;-57
2021/04/13 01:10:49;;;;;;;10.95;7.18;;;2.80;90.90;;;;;;5014199;28;20033;-58
2021/04/13 01:13:17;;;;;;;10.10;7.05;;;2.90;90.80;;;;;;5011968;28;20109;-55
2021/04/13 01:15:49;;;;;;;8.73;7.32;;;2.90;91.00;;;;;;5011709;28;20034;-58
2021/04/13 01:18:30;;;;;;;12.13;7.45;;;3.00;90.50;;;;;;5014462;28;20653;-60
2021/04/13 01:21:17;;;;;;;14.02;8.43;;;2.90;90.80;;;;;;5014820;28;20088;-60
2021/04/13 01:23:56;;;;;;;14.50;9.18;;;2.90;91.00;;;;;;5017592;28;20509;-60
2021/04/13 01:26:22;;;;;;;14.05;7.78;;;2.90;90.90;;;;;;5012375;28;20061;-60
2021/04/13 01:28:51;;;;;;;15.85;9.00;;;3.00;91.00;;;;;;5032854;28;20143;-60
2021/04/13 01:31:46;;;;;;;17.00;8.98;;;3.10;90.50;;;;;;5016996;28;20042;-59
2021/04/13 01:34:14;;;;;;;11.63;9.00;;;2.90;91.00;;;;;;5020503;28;20044;-60
2021/04/13 01:36:45;;;;;;;11.77;8.60;;;2.90;91.30;;;;;;5014926;28;20265;-61
2021/04/13 01:39:16;;;;;;;18.38;10.15;;;3.00;90.90;;;;;;5019767;28;20033;-58
2021/04/13 01:41:57;;;;;;;13.07;8.57;;;2.90;90.80;;;;;;5016244;28;20056;-60
2021/04/13 01:44:38;;;;;;;14.70;8.43;;;3.00;91.00;;;;;;5021113;28;20041;-60
2021/04/13 01:47:06;;;;;;;14.93;10.20;;;3.10;90.50;;;;;;5016221;28;20072;-59
2021/04/13 01:49:40;;;;;;;14.15;9.68;;;3.10;90.40;;;;;;5020640;28;20054;-61
2021/04/13 01:52:12;;;;;;;13.68;9.32;;;3.00;90.80;;;;;;5012425;28;20022;-60
2021/04/13 01:54:39;;;;;;;13.18;8.98;;;3.00;91.10;;;;;;5011111;28;20038;-60
2021/04/13 01:57:13;;;;;;;19.05;10.48;;;2.90;91.00;;;;;;5012682;28;20024;-60
2021/04/13 01:59:54;;;;;;;19.55;11.10;;;2.70;91.40;;;;;;5011325;28;20057;-58
2021/04/13 02:02:34;;;;;;;18.23;11.20;;;2.60;91.70;;;;;;5015033;28;20101;-58
2021/04/13 02:05:10;;;;;;;15.73;11.75;;;2.50;92.00;;;;;;5015255;28;20627;-60
2021/04/13 02:10:27;;;;;;;16.00;11.10;;;2.20;92.80;;;;;;5014608;28;20065;-59
2021/04/13 02:12:57;;;;;;;;;;;2.10;93.10;;;;;;5016632;28;20523;-55
2021/04/13 02:15:29;;;;;;;15.65;10.65;;;2.10;93.10;;;;;;5013936;28;19939;-59
2021/04/13 02:17:59;;;;;;;13.02;11.63;;;2.10;93.10;;;;;;5016819;28;20028;-59
2021/04/13 02:20:31;;;;;;;12.88;10.60;;;2.10;93.10;;;;;;5014626;28;20030;-60
2021/04/13 02:22:57;;;;;;;16.20;11.55;;;2.10;93.00;;;;;;5017215;28;20485;-60
2021/04/13 02:25:34;;;;;;;14.05;11.73;;;2.10;92.80;;;;;;5014358;28;20041;-59
2021/04/13 02:28:01;;;;;;;15.63;11.85;;;2.10;93.00;;;;;;5031482;28;20045;-60
2021/04/13 02:30:40;;;;;;;15.18;11.45;;;1.90;93.40;;;;;;5014186;28;20029;-60
2021/04/13 02:33:13;;;;;;;14.85;11.27;;;1.90;93.60;;;;;;5013574;28;20116;-57
2021/04/13 02:35:39;;;;;;;13.85;11.52;;;2.00;93.30;;;;;;5014539;28;20383;-60
2021/04/13 02:38:11;;;;;;;14.80;11.50;;;2.20;92.90;;;;;;5019241;28;20103;-58
2021/04/13 02:40:51;;;;;;;15.05;11.50;;;2.40;92.30;;;;;;5013994;28;20057;-57
2021/04/13 02:43:30;;;;;;;13.23;11.25;;;2.50;92.10;;;;;;5021570;28;20036;-59
2021/04/13 02:46:00;;;;;;;14.25;11.88;;;2.40;92.10;;;;;;5014347;28;20018;-57
2021/04/13 02:48:41;;;;;;;13.05;10.85;;;2.40;92.00;;;;;;5020337;28;20669;-59
2021/04/13 02:51:10;;;;;;;14.52;11.93;;;2.40;91.90;;;;;;5014223;28;20502;-58
2021/04/13 02:53:43;;;;;;;12.98;11.40;;;2.40;91.90;;;;;;5022127;28;20041;-59
2021/04/13 02:56:13;;;;;;;15.18;11.82;;;2.40;91.90;;;;;;5014188;28;20076;-58
2021/04/13 02:58:47;;;;;;;12.27;10.98;;;2.50;91.70;;;;;;5021883;28;20102;-56
2021/04/13 03:01:14;;;;;;;14.00;10.55;;;2.60;91.60;;;;;;5014475;28;20029;-60
2021/04/13 03:03:43;;;;;;;14.90;11.93;;;2.50;91.60;;;;;;5022870;28;20124;-59
2021/04/13 03:06:09;;;;;;;13.60;11.07;;;2.50;91.60;;;;;;5013979;28;20469;-60
2021/04/13 03:08:39;;;;;;;13.35;11.13;;;2.40;91.90;;;;;;5022266;28;20091;-60
2021/04/13 03:11:16;;;;;;;13.75;11.30;;;2.40;91.60;;;;;;5013640;28;20037;-60
2021/04/13 03:13:43;;;;;;;12.50;11.20;;;2.50;91.40;;;;;;5012786;28;20468;-61
2021/04/13 03:16:12;;;;;;;14.50;11.43;;;2.40;91.40;;;;;;5013234;28;20038;-61
2021/04/13 03:18:46;;;;;;;15.40;11.25;;;2.50;91.30;;;;;;5014198;28;20413;-58
2021/04/13 03:21:25;;;;;;;16.70;11.33;;;2.50;91.40;;;;;;5013693;28;20062;-60
2021/04/13 03:23:53;;;;;;;11.48;10.15;;;2.50;91.40;;;;;;5022139;28;20386;-59
2021/04/13 03:26:27;;;;;;;15.38;11.88;;;2.60;91.10;;;;;;5014196;28;20046;-58
2021/04/13 03:28:58;;;;;;;14.88;11.15;;;2.40;91.30;;;;;;5013511;28;20509;-58
2021/04/13 03:31:31;;;;;;;13.40;11.30;;;2.30;91.40;;;;;;5013106;28;20050;-60
2021/04/13 03:33:58;;;;;;;15.30;11.98;;;2.10;92.00;;;;;;5013949;28;20038;-57
2021/04/13 03:36:25;;;;;;;14.02;11.73;;;2.20;92.20;;;;;;5013242;28;20033;-58
2021/04/13 03:39:17;;;;;;;15.90;11.32;;;2.20;91.90;;;;;;5013548;28;20049;-59
2021/04/13 03:41:47;;;;;;;14.75;11.85;;;2.20;92.10;;;;;;5013156;28;20127;-56
2021/04/13 03:44:16;;;;;;;15.90;11.45;;;2.20;91.80;;;;;;5014375;28;20038;-58
2021/04/13 03:46:41;;;;;;;15.00;11.30;;;2.20;91.70;;;;;;5012952;28;20034;-58
2021/04/13 03:49:22;;;;;;;14.52;11.35;;;2.20;91.90;;;;;;5014284;28;20449;-59
2021/04/13 03:51:52;;;;;;;13.25;11.85;;;2.30;91.50;;;;;;5013200;28;20097;-59
2021/04/13 03:54:30;;;;;;;14.90;12.30;;;2.30;91.70;;;;;;5015312;28;20151;-57
2021/04/13 03:56:56;;;;;;;14.20;11.43;;;2.30;91.40;;;;;;5013428;28;20032;-58
2021/04/13 03:59:29;;;;;;;16.50;11.57;;;2.30;91.50;;;;;;5015027;28;20058;-58
2021/04/13 04:01:55;;;;;;;14.93;12.65;;;2.30;91.40;;;;;;5013286;28;20036;-59
2021/04/13 04:04:33;;;;;;;13.75;11.23;;;2.30;91.60;;;;;;5015661;28;20120;-61
2021/04/13 04:07:29;;;;;;;14.52;11.35;;;2.40;91.40;;;;;;5012449;28;20038;-60
2021/04/13 04:09:54;;;;;;;12.95;11.27;;;2.50;91.00;;;;;;5015105;28;20486;-61
2021/04/13 04:12:28;;;;;;;15.02;12.13;;;2.50;91.10;;;;;;5013390;28;20052;-60
2021/04/13 04:15:03;;;;;;;14.65;11.77;;;2.50;91.00;;;;;;5013335;28;20460;-61
2021/04/13 04:17:32;;;;;;;14.15;11.45;;;2.60;90.90;;;;;;5013321;28;20022;-58
2021/04/13 04:20:09;;;;;;;14.00;11.60;;;2.60;90.80;;;;;;5017486;28;20091;-59
2021/04/13 04:22:46;;;;;;;13.85;12.13;;;2.60;90.60;;;;;;5013597;28;20032;-60
2021/04/13 04:25:28;;;;;;;14.65;11.90;;;2.60;90.80;;;;;;5019464;28;20065;-61
2021/04/13 04:27:55;;;;;;;14.05;12.05;;;2.50;91.00;;;;;;5017245;28;20034;-62
2021/04/13 04:30:30;;;;;;;14.18;10.98;;;2.50;90.70;;;;;;5014618;28;20042;-58
2021/04/13 04:32:57;;;;;;;16.35;12.30;;;2.50;90.60;;;;;;5013814;28;20030;-62
2021/04/13 04:35:34;;;;;;;14.10;12.23;;;2.50;90.50;;;;;;5022507;28;20026;-61
2021/04/13 04:38:35;;;;;;;13.98;12.27;;;2.40;90.50;;;;;;5012984;28;20042;-58
2021/04/13 04:41:08;;;;;;;17.67;13.05;;;2.40;90.70;;;;;;5018042;28;20681;-58
2021/04/13 04:43:44;;;;;;;15.85;11.95;;;2.40;90.90;;;;;;5012373;28;20037;-57
2021/04/13 04:46:09;;;;;;;15.88;11.93;;;2.40;90.80;;;;;;5019553;28;20143;-60
2021/04/13 04:48:39;;;;;;;13.93;12.10;;;2.50;90.80;;;;;;5011534;28;20648;-57
2021/04/13 04:51:10;;;;;;;13.98;11.43;;;2.50;90.60;;;;;;5020274;28;20065;-60
2021/04/13 04:53:38;;;;;;;13.65;11.38;;;2.60;90.30;;;;;;5011918;28;20026;-59
2021/04/13 04:56:07;;;;;;;16.73;12.60;;;2.60;90.30;;;;;;5020831;28;20034;-60
2021/04/13 04:58:33;;;;;;;14.45;11.75;;;2.50;90.20;;;;;;5011328;28;20094;-58
2021/04/13 05:01:00;;;;;;;13.20;11.60;;;2.60;90.10;;;;;;5020802;28;20109;-58
2021/04/13 05:03:27;;;;;;;16.67;12.95;;;2.50;90.10;;;;;;5011467;28;20042;-58
2021/04/13 05:05:54;;;;;;;16.70;12.95;;;2.30;90.40;;;;;;5007276;28;20104;-57
2021/04/13 05:08:20;;;;;;;20.42;13.57;;;2.40;90.30;;;;;;5005674;28;20069;-60
2021/04/13 05:10:46;;;;;;;16.15;12.63;;;2.40;90.40;;;;;;5019481;28;20056;-60
2021/04/13 05:13:12;;;;;;;16.20;11.93;;;2.40;90.40;;;;;;5012246;28;20402;-60
2021/04/13 05:15:38;;;;;;;18.73;13.88;;;2.30;90.60;;;;;;5019977;28;20038;-59
2021/04/13 05:18:04;;;;;;;17.75;14.00;;;2.20;90.70;;;;;;5011897;28;20037;-58
2021/04/13 05:20:30;;;;;;;18.10;13.52;;;2.10;91.10;;;;;;5019295;28;20065;-56
2021/04/13 05:22:55;;;;;;;18.70;13.23;;;2.10;91.20;;;;;;5011930;28;20547;-57
2021/04/13 05:25:22;;;;;;;16.33;12.80;;;2.20;91.00;;;;;;5019969;28;20563;-57
2021/04/13 05:27:47;;;;;;;18.83;13.63;;;2.30;90.80;;;;;;5010767;28;20030;-57
2021/04/13 05:30:16;;;;;;;18.83;13.27;;;2.10;90.90;;;;;;5013866;28;20490;-57
2021/04/13 05:32:42;;;;;;;16.25;12.43;;;2.10;90.90;;;;;;5012005;28;20048;-58
2021/04/13 05:35:08;;;;;;;17.38;13.75;;;2.10;91.20;;;;;;5012477;28;20053;-58
2021/04/13 05:37:34;;;;;;;17.75;12.90;;;2.10;91.10;;;;;;5025140;28;20033;-58
2021/04/13 05:40:02;;;;;;;16.83;13.43;;;2.20;91.10;;;;;;5020835;28;20044;-57
2021/04/13 05:42:30;;;;;;;15.60;12.43;;;2.30;90.90;;;;;;5015310;28;20053;-59
2021/04/13 05:44:57;;;;;;;17.90;14.32;;;2.20;91.20;;;;;;5017497;28;20038;-61
2021/04/13 05:47:25;;;;;;;17.63;13.98;;;2.20;91.40;;;;;;5016899;28;20033;-59
2021/04/13 05:49:51;;;;;;;18.27;13.85;;;2.20;91.30;;;;;;5018126;28;20026;-57
2021/04/13 05:52:16;;;;;;;21.48;16.15;;;2.30;91.20;;;;;;5019309;28;20582;-59
2021/04/13 05:54:42;;;;;;;22.38;15.60;;;2.40;91.10;;;;;;5014512;28;20049;-61
2021/04/13 05:57:13;;;;;;;20.77;16.27;;;2.50;90.80;;;;;;5019093;28;20029;-60
2021/04/13 05:59:39;;;;;;;24.73;15.05;;;2.50;91.00;;;;;;5019388;28;20026;-59
2021/04/13 06:02:06;;;;;;;20.88;15.35;;;2.60;90.90;;;;;;5020104;28;20084;-56
2021/04/13 06:04:33;;;;;;;19.30;14.50;;;2.80;90.40;;;;;;5017436;28;20037;-60
2021/04/13 06:06:59;;;;;;;20.60;14.40;;;2.90;90.30;;;;;;5019574;28;20049;-60
2021/04/13 06:09:24;;;;;;;18.83;15.35;;;3.00;90.00;;;;;;5015408;28;20389;-61
2021/04/13 06:11:50;;;;;;;22.50;15.85;;;3.00;89.70;;;;;;5017927;28;20048;-61
2021/04/13 06:14:18;;;;;;;20.00;15.30;;;3.00;90.20;;;;;;5014715;28;20429;-60
2021/04/13 06:16:47;;;;;;;19.40;14.68;;;3.20;89.80;;;;;;5005243;28;20042;-57
2021/04/13 06:19:13;;;;;;;20.40;15.95;;;3.30;89.30;;;;;;4999559;28;20046;-61
2021/04/13 06:21:38;;;;;;;21.58;16.23;;;3.20;89.90;;;;;;5009172;28;20034;-60
2021/04/13 06:24:04;;;;;;;21.95;15.65;;;3.20;90.00;;;;;;5007820;28;20046;-61
2021/04/13 06:26:30;;;;;;;22.80;15.50;;;3.20;89.10;;;;;;5011129;28;20034;-61
2021/04/13 06:28:56;;;;;;;23.42;16.60;;;3.10;90.20;;;;;;5004241;28;20040;-60
2021/04/13 06:31:21;;;;;;;22.98;15.63;;;3.00;90.60;;;;;;5008843;28;20046;-60
2021/04/13 06:33:47;;;;;;;23.50;16.15;;;3.10;90.30;;;;;;4994951;28;20042;-58
2021/04/13 06:36:17;;;;;;;24.08;16.40;;;3.30;89.90;;;;;;4999926;28;20033;-59
2021/04/13 06:38:45;;;;;;;25.88;15.52;;;3.30;89.50;;;;;;4997148;28;20053;-61
2021/04/13 06:41:41;;;;;;;29.50;14.90;;;3.40;89.30;;;;;;5000033;28;20065;-61
2021/04/13 06:44:26;;;;;;;23.00;14.93;;;3.40;88.50;;;;;;4995049;28;20027;-61
2021/04/13 06:47:02;;;;;;;23.63;14.45;;;3.20;89.40;;;;;;5002638;28;20041;-60
2021/04/13 06:49:50;;;;;;;21.90;13.75;;;3.30;89.40;;;;;;4994462;28;20576;-60
2021/04/13 06:52:37;;;;;;;19.20;14.30;;;3.50;87.70;;;;;;5001287;28;20034;-59
2021/04/13 06:55:17;;;;;;;21.45;12.93;;;3.90;86.80;;;;;;4996010;28;20037;-56
2021/04/13 06:58:13;;;;;;;21.95;12.90;;;4.00;85.90;;;;;;4993038;28;20050;-59
2021/04/13 07:01:04;;;;;;;23.30;13.55;;;3.80;86.80;;;;;;5002915;28;20022;-59
2021/04/13 07:03:44;;;;;;;20.10;12.77;;;3.90;86.40;;;;;;5008415;28;20042;-64
2021/04/13 07:06:17;;;;;;;21.30;13.50;;;3.90;86.60;;;;;;5013623;28;20029;-57
2021/04/13 07:08:49;;;;;;;18.92;12.38;;;4.10;86.50;;;;;;5015620;28;20030;-62
2021/04/13 07:11:25;;;;;;;21.05;11.25;;;4.20;84.90;;;;;;5014514;28;20033;-61
2021/04/13 07:14:17;;;;;;;17.48;11.18;;;4.20;84.50;;;;;;5009754;28;20727;-56
2021/04/13 07:16:59;;;;;;;13.88;10.25;;;4.20;84.50;;;;;;4995247;28;20069;-60
2021/04/13 07:19:47;;;;;;;15.55;9.65;;;4.50;83.30;;;;;;4996413;28;20379;-62
2021/04/13 07:22:12;;;;;;;14.00;9.57;;;4.30;82.00;;;;;;4993277;28;20053;-58
2021/04/13 07:24:57;;;;;;;15.23;11.15;;;4.40;83.00;;;;;;5011258;28;20037;-58
2021/04/13 07:27:34;;;;;;;13.10;9.32;;;4.50;83.00;;;;;;4996544;28;20599;-58
2021/04/13 07:30:13;;;;;;;14.57;9.10;;;4.30;81.50;;;;;;5019477;28;20057;-60
2021/04/13 07:32:39;;;;;;;16.15;9.10;;;4.20;82.00;;;;;;4994719;28;20216;-59
2021/04/13 07:35:09;;;;;;;15.48;10.43;;;4.20;81.90;;;;;;5019172;28;20141;-58
2021/04/13 07:37:41;;;;;;;12.80;10.18;;;4.30;82.70;;;;;;5013693;28;20054;-62
2021/04/13 07:40:14;;;;;;;14.18;9.50;;;4.80;85.00;;;;;;5000747;28;20030;-60
2021/04/13 07:42:46;;;;;;;11.75;8.13;;;5.20;84.80;;;;;;5016971;28;20037;-60
2021/04/13 07:45:21;;;;;;;13.00;9.02;;;5.80;82.90;;;;;;5021937;28;20123;-57
2021/04/13 07:48:10;;;;;;;13.68;9.02;;;6.20;78.10;;;;;;5016540;28;20038;-56
2021/04/13 07:51:01;;;;;;;13.32;9.68;;;6.10;76.10;;;;;;5014715;28;20060;-55
2021/04/13 07:53:45;;;;;;;12.93;9.23;;;5.70;76.50;;;;;;5014252;28;20061;-58
2021/04/13 07:56:31;;;;;;;13.90;10.00;;;5.10;79.60;;;;;;5021912;28;20540;-57
2021/04/13 07:59:18;;;;;;;13.60;9.60;;;5.30;79.40;;;;;;5019717;28;20440;-58
2021/04/13 08:01:46;;;;;;;13.23;8.88;;;5.40;79.20;;;;;;5014755;28;20452;-58
2021/04/13 08:04:19;;;;;;;12.60;9.25;;;5.20;78.70;;;;;;5013835;28;20107;-58
2021/04/13 08:07:01;;;;;;;15.32;10.07;;;5.10;79.90;;;;;;5014949;28;20076;-58
2021/04/13 08:09:37;;;;;;;13.85;8.75;;;5.50;79.30;;;;;;5008643;28;20037;-60
2021/04/13 08:12:02;;;;;;;10.73;7.05;;;5.20;79.60;;;;;;4999976;28;20385;-58
2021/04/13 08:14:32;;;;;;;9.70;6.90;;;5.30;78.40;;;;;;5023570;28;20025;-57
2021/04/13 08:17:12;;;;;;;11.13;7.07;;;5.30;79.60;;;;;;5016345;28;20397;-52
2021/04/13 08:19:38;;;;;;;13.70;7.95;;;5.30;79.10;;;;;;5000095;28;20046;-55
2021/04/13 08:22:06;;;;;;;10.00;5.82;;;5.20;79.90;;;;;;5013440;28;20038;-59
2021/04/13 08:24:42;;;;;;;8.77;6.55;;;5.30;78.20;;;;;;5008981;28;20091;-59
2021/04/13 08:27:18;;;;;;;8.13;4.90;;;5.40;77.40;;;;;;5002805;28;20115;-58
2021/04/13 08:29:55;;;;;;;8.48;4.57;;;5.50;76.70;;;;;;5010038;28;20051;-59
2021/04/13 08:32:50;;;;;;;8.10;4.65;;;5.40;76.30;;;;;;5021851;28;20398;-60
2021/04/13 08:35:30;;;;;;;7.32;4.35;;;5.70;76.30;;;;;;4994808;28;20070;-56
2021/04/13 08:38:21;;;;;;;6.65;4.68;;;5.80;75.10;;;;;;4997043;28;20030;-56
2021/04/13 08:41:01;;;;;;;8.93;4.68;;;5.90;74.80;;;;;;4996335;28;20054;-58
2021/04/13 08:43:48;;;;;;;11.15;4.53;;;6.00;75.10;;;;;;5000764;28;20371;-57
2021/04/13 08:46:45;;;;;;;10.30;4.13;;;6.00;75.40;;;;;;5014371;28;20038;-58
2021/04/13 08:49:21;;;;;;;9.00;3.40;;;6.30;74.10;;;;;;5000626;28;20108;-59
2021/04/13 08:51:51;;;;;;;6.70;3.13;;;6.00;74.00;;;;;;5013473;28;20041;-55
2021/04/13 08:54:19;;;;;;;9.52;3.88;;;5.80;74.80;;;;;;5013043;28;20054;-59
2021/04/13 08:56:59;;;;;;;11.55;3.75;;;6.00;74.50;;;;;;5011159;28;20566;-59
2021/04/13 08:59:55;;;;;;;7.47;3.10;;;6.30;74.20;;;;;;5010683;28;20079;-57
2021/04/13 09:02:20;;;;;;;;;;;6.40;73.30;;;;;;5020838;28;20099;-59
2021/04/13 09:04:46;;;;;;;5.32;3.25;;;6.30;72.70;;;;;;5014836;28;19909;-58
2021/04/13 09:07:26;;;;;;;8.00;2.83;;;6.50;72.30;;;;;;5017155;28;20084;-59
2021/04/13 09:10:15;;;;;;;9.43;3.20;;;6.50;72.20;;;;;;5012170;28;20076;-60
2021/04/13 09:12:46;;;;;;;6.63;3.67;;;6.20;72.90;;;;;;5017115;28;20045;-60
2021/04/13 09:15:27;;;;;;;9.50;3.95;;;6.00;73.70;;;;;;5009854;28;20026;-57
2021/04/13 09:18:17;;;;;;;5.95;3.63;;;6.10;73.20;;;;;;5010669;28;20041;-60
2021/04/13 09:20:58;;;;;;;11.48;5.95;;;6.30;73.90;;;;;;4999096;28;20437;-60
2021/04/13 09:23:26;;;;;;;15.57;6.25;;;6.50;74.20;;;;;;5020097;28;20037;-58
2021/04/13 09:25:51;;;;;;;7.75;4.30;;;6.40;75.00;;;;;;5011820;28;20033;-59
2021/04/13 09:28:21;;;;;;;4.70;3.08;;;6.10;75.10;;;;;;5013607;28;20026;-56
2021/04/13 09:31:00;;;;;;;9.30;3.33;;;6.20;72.50;;;;;;5011644;28;20049;-57
2021/04/13 09:33:34;;;;;;;7.55;2.67;;;6.20;72.50;;;;;;5019822;28;20033;-58
2021/04/13 09:36:09;;;;;;;;;;;6.30;72.20;;;;;;5001430;28;20026;-59
2021/04/13 09:38:58;;;;;;;8.00;2.60;;;6.50;71.00;;;;;;5013422;28;20424;-57
2021/04/13 09:42:05;;;;;;;8.43;2.53;;;6.60;71.10;;;;;;4992721;28;20030;-59
2021/04/13 09:44:54;;;;;;;5.45;2.30;;;6.80;70.00;;;;;;5020688;28;20041;-59
2021/04/13 09:47:44;;;;;;;6.60;2.92;;;6.80;69.40;;;;;;4999999;28;20061;-59
2021/04/13 09:50:40;;;;;;;6.40;2.90;;;6.60;70.00;;;;;;5015753;28;20481;-59
2021/04/13 09:53:25;;;;;;;3.67;2.33;;;6.60;70.50;;;;;;5027936;28;20543;-58
2021/04/13 09:56:19;;;;;;;7.22;3.70;;;6.30;69.60;;;;;;5000260;28;20029;-61
2021/04/13 09:59:05;;;;;;;4.28;2.53;;;6.30;69.30;;;;;;5033906;28;20044;-59
2021/04/13 10:02:00;;;;;;;5.55;3.00;;;6.40;69.30;;;;;;5011178;28;20061;-60
2021/04/13 10:04:34;;;;;;;9.68;2.90;;;6.40;70.20;;;;;;5020909;28;20489;-60
2021/04/13 10:07:38;;;;;;;9.15;3.13;;;6.50;70.20;;;;;;5026886;28;20038;-59
2021/04/13 10:10:06;;;;;;;7.45;3.08;;;6.60;70.40;;;;;;5023044;28;20121;-57
2021/04/13 10:12:50;;;;;;;6.63;2.78;;;6.50;71.70;;;;;;5009254;28;20026;-58
2021/04/13 10:15:41;;;;;;;8.30;3.30;;;6.60;71.70;;;;;;5018860;28;20378;-58
2021/04/13 10:18:21;;;;;;;7.05;3.40;;;6.70;71.60;;;;;;5024556;28;20029;-59
2021/04/13 10:21:15;;;;;;;8.00;3.65;;;6.50;72.90;;;;;;5011065;28;20389;-59
2021/04/13 10:23:50;;;;;;;6.25;2.85;;;6.60;70.30;;;;;;5005091;28;20478;-57
2021/04/13 10:26:34;;;;;;;5.97;3.08;;;6.80;68.90;;;;;;5015809;28;20060;-59
2021/04/13 10:29:30;;;;;;;6.10;2.95;;;7.20;67.40;;;;;;5004370;28;20034;-60
2021/04/13 10:32:07;;;;;;;;;;;7.30;65.20;;;;;;5015176;28;20136;-59
2021/04/13 10:34:46;;;;;;;9.32;3.35;;;7.30;65.20;;;;;;5018520;28;19913;-59
2021/04/13 10:37:36;;;;;;;6.43;2.78;;;7.50;66.10;;;;;;5001993;28;20033;-59
2021/04/13 10:40:05;;;;;;;6.13;2.92;;;7.30;67.50;;;;;;5023860;28;20041;-59
2021/04/13 10:42:55;;;;;;;13.20;3.20;;;7.20;65.40;;;;;;5013420;28;20030;-57
2021/04/13 10:45:30;;;;;;;8.70;2.95;;;7.40;65.80;;;;;;5024710;28;20018;-59
2021/04/13 10:48:12;;;;;;;;;;;7.30;67.20;;;;;;5014848;28;20044;-59
2021/04/13 10:50:37;;;;;;;8.20;2.88;;;7.40;67.80;;;;;;5027385;28;19909;-61
2021/04/13 10:53:09;;;;;;;8.30;2.97;;;7.60;66.70;;;;;;5020286;28;20044;-59
2021/04/13 10:56:05;;;;;;;6.22;2.85;;;7.60;66.40;;;;;;5024420;28;20022;-59
2021/04/13 10:59:01;;;;;;;6.32;2.75;;;7.70;64.60;;;;;;5014031;28;20026;-59
2021/04/13 11:01:49;;;;;;;7.38;3.42;;;7.60;62.90;;;;;;5004939;28;20033;-61
2021/04/13 11:04:33;;;;;;;6.38;2.60;;;7.70;62.80;;;;;;5018196;28;20034;-61
2021/04/13 11:07:41;;;;;;;7.88;3.20;;;7.70;64.40;;;;;;5020058;28;20030;-59
2021/04/13 11:10:31;;;;;;;5.53;3.03;;;7.90;66.40;;;;;;5018665;28;20035;-58
2021/04/13 11:13:19;;;;;;;12.48;4.00;;;8.00;64.00;;;;;;5012696;28;20030;-60
2021/04/13 11:16:18;;;;;;;6.68;3.38;;;8.10;64.80;;;;;;5009848;28;20033;-56
2021/04/13 11:19:16;;;;;;;9.73;3.88;;;7.70;67.90;;;;;;5009678;28;20505;-58
2021/04/13 11:22:01;;;;;;;5.70;3.10;;;7.80;68.60;;;;;;5002450;28;20056;-58
2021/04/13 11:24:57;;;;;;;10.70;4.80;;;7.60;66.70;;;;;;5020666;28;20042;-57
2021/04/13 11:27:59;;;;;;;11.55;3.92;;;7.40;68.70;;;;;;5004124;28;20047;-60
2021/04/13 11:31:02;;;;;;;8.57;3.40;;;7.60;67.40;;;;;;5022603;28;20037;-62
2021/04/13 11:33:45;;;;;;;7.25;3.10;;;7.70;65.90;;;;;;5012958;28;20056;-60
2021/04/13 11:36:18;;;;;;;9.00;3.78;;;8.20;65.40;;;;;;5013789;28;20039;-59
2021/04/13 11:38:44;;;;;;;6.60;2.88;;;8.40;65.00;;;;;;5017577;28;20036;-57
2021/04/13 11:41:24;;;;;;;6.85;3.08;;;8.30;62.00;;;;;;5022026;28;20398;-60
2021/04/13 11:44:19;;;;;;;4.63;2.78;;;8.30;60.70;;;;;;5015513;28;20033;-60
2021/04/13 11:46:55;;;;;;;6.07;3.53;;;8.50;60.00;;;;;;5013440;28;20040;-60
2021/04/13 11:49:35;;;;;;;8.52;3.35;;;8.50;59.50;;;;;;5014303;28;20041;-59
2021/04/13 11:52:15;;;;;;;7.45;3.72;;;8.60;59.40;;;;;;5012384;28;20053;-61
2021/04/13 11:54:52;;;;;;;6.72;3.70;;;8.60;62.00;;;;;;5012366;28;20129;-62
2021/04/13 11:57:25;;;;;;;5.80;3.50;;;8.90;62.00;;;;;;5014363;28;20049;-60
2021/04/13 12:00:09;;;;;;;8.50;3.70;;;8.70;61.40;;;;;;5018138;28;20136;-59
2021/04/13 12:02:43;;;;;;;7.07;3.42;;;8.50;60.30;;;;;;5011207;28;20021;-60
2021/04/13 12:05:25;;;;;;;8.95;3.65;;;8.30;60.40;;;;;;5011531;28;20041;-61
2021/04/13 12:07:51;;;;;;;6.80;3.40;;;8.10;61.40;;;;;;4996991;28;20030;-59
2021/04/13 12:10:37;;;;;;;6.40;3.83;;;8.10;60.60;;;;;;5014689;28;20053;-60
2021/04/13 12:13:10;;;;;;;5.85;3.85;;;8.30;61.20;;;;;;4997776;28;20072;-60
2021/04/13 12:15:54;;;;;;;4.38;3.60;;;8.10;60.10;;;;;;5016108;28;20045;-61
2021/04/13 12:18:35;;;;;;;6.32;3.60;;;8.10;61.40;;;;;;5005225;28;20088;-62
2021/04/13 12:21:23;;;;;;;8.02;4.20;;;8.50;61.70;;;;;;5018054;28;20113;-60
2021/04/13 12:24:04;;;;;;;8.32;4.63;;;8.50;62.10;;;;;;5006491;28;20040;-61
2021/04/13 12:26:32;;;;;;;11.90;4.65;;;8.50;63.00;;;;;;5000851;28;20034;-60
2021/04/13 12:29:22;;;;;;;8.23;4.70;;;8.60;63.80;;;;;;5009636;28;20021;-60
2021/04/13 12:32:12;;;;;;;12.32;4.35;;;8.40;64.60;;;;;;5012700;28;20065;-61
2021/04/13 12:34:59;;;;;;;8.07;4.80;;;8.40;63.90;;;;;;5013176;28;20034;-60
2021/04/13 12:37:45;;;;;;;9.57;4.68;;;8.30;64.90;;;;;;5001984;28;20377;-60
2021/04/13 12:40:19;;;;;;;6.82;4.00;;;8.40;64.80;;;;;;5017909;28;20026;-60
2021/04/13 12:42:46;;;;;;;;;;;8.40;63.80;;;;;;5013290;28;20022;-60
2021/04/13 12:45:18;;;;;;;6.47;3.95;;;8.60;64.20;;;;;;5012470;28;19913;-60
2021/04/13 12:47:45;;;;;;;7.43;4.28;;;8.90;61.10;;;;;;5016767;28;20080;-59
2021/04/13 12:50:34;;;;;;;9.15;4.85;;;8.80;62.10;;;;;;5010332;28;20378;-60
2021/04/13 12:53:02;;;;;;;10.25;3.80;;;8.70;63.00;;;;;;5016434;28;20046;-59
2021/04/13 12:55:30;;;;;;;6.78;3.90;;;9.20;61.60;;;;;;5012922;28;20038;-62
2021/04/13 12:57:58;;;;;;;5.55;3.63;;;9.50;59.70;;;;;;5022907;28;20032;-62
2021/04/13 13:00:31;;;;;;;4.45;3.33;;;9.50;59.20;;;;;;5014096;28;20071;-61
2021/04/13 13:03:13;;;;;;;6.20;3.80;;;9.00;56.00;;;;;;5012685;28;20041;-60
2021/04/13 13:05:39;;;;;;;6.00;4.00;;;8.70;59.80;;;;;;5015234;28;20038;-61
2021/04/13 13:08:07;;;;;;;9.60;4.70;;;8.40;64.70;;;;;;5012234;28;20092;-57
2021/04/13 13:10:37;;;;;;;8.20;3.75;;;8.30;67.90;;;;;;5015996;28;20045;-60
2021/04/13 13:13:10;;;;;;;5.20;2.90;;;8.30;66.50;;;;;;5015535;28;20108;-61
2021/04/13 13:15:37;;;;;;;4.13;2.60;;;8.40;64.30;;;;;;5019283;28;20029;-57
2021/04/13 13:18:13;;;;;;;5.25;3.55;;;8.40;62.70;;;;;;5013873;28;20124;-58
2021/04/13 13:20:39;;;;;;;5.00;2.90;;;8.20;63.20;;;;;;5014293;28;20052;-59
2021/04/13 13:23:05;;;;;;;3.42;2.70;;;8.30;63.50;;;;;;5015873;28;20489;-56
2021/04/13 13:25:33;;;;;;;8.45;2.90;;;8.20;62.20;;;;;;5020732;28;20044;-59
2021/04/13 13:28:22;;;;;;;5.40;2.90;;;8.10;62.40;;;;;;5004910;28;20042;-59
2021/04/13 13:30:49;;;;;;;3.97;2.70;;;8.20;61.90;;;;;;5019180;28;20029;-59
2021/04/13 13:33:16;;;;;;;8.23;3.70;;;8.10;60.20;;;;;;5015572;28;20026;-61
2021/04/13 13:35:42;;;;;;;6.30;3.40;;;8.20;59.50;;;;;;5017418;28;20064;-60